Time;durP1;ratioP1;P1;durP2;ratioP2;P2;SDS_P1;SDS_P2;PMS_P1;PMS_P2;Temp;Humidity;BMP_temperature;BMP_pressure;BME280_temperature;BME280_humidity;BME280_pressure;Samples;Min_cycle;Max_cycle;Signal;HPM_P1;HPM_P2
2022/08/03 00:02:18;;;;;;;2.33;1.87;;;;;;;;;;5073332;28;20567;-82
2022/08/03 00:04:44;;;;;;;1.87;1.77;;;;;;;;;;5073269;28;20201;-83
2022/08/03 00:07:11;;;;;;;1.97;1.87;;;;;;;;;;5073860;28;20209;-82
2022/08/03 00:09:39;;;;;;;1.93;1.80;;;;;;;;;;5073442;28;20201;-82
2022/08/03 00:12:07;;;;;;;2.20;1.80;;;;;;;;;;5073290;28;20208;-82
2022/08/03 00:14:33;;;;;;;7.23;2.20;;;;;;;;;;5073044;28;20204;-82
2022/08/03 00:17:00;;;;;;;2.20;2.00;;;;;;;;;;5073154;28;20204;-82
2022/08/03 00:19:27;;;;;;;1.60;1.50;;;;;;;;;;5071818;28;20196;-82
2022/08/03 00:21:54;;;;;;;5.80;2.70;;;;;;;;;;5073014;28;20667;-82
2022/08/03 00:24:21;;;;;;;4.10;1.70;;;;;;;;;;5072902;28;20667;-82
2022/08/03 00:26:49;;;;;;;2.10;1.60;;;;;;;;;;5071679;28;20233;-82
2022/08/03 00:29:16;;;;;;;1.77;1.67;;;;;;;;;;5072777;28;20224;-82
2022/08/03 00:31:43;;;;;;;2.00;1.90;;;;;;;;;;5072768;28;20667;-82
2022/08/03 00:34:10;;;;;;;2.33;2.13;;;;;;;;;;5073367;28;20197;-82
2022/08/03 00:36:36;;;;;;;2.10;2.00;;;;;;;;;;5073044;28;20193;-82
2022/08/03 00:39:03;;;;;;;2.30;2.13;;;;;;;;;;5072824;28;20204;-82
2022/08/03 00:41:30;;;;;;;2.07;1.93;;;;;;;;;;5073050;28;20201;-82
2022/08/03 00:43:58;;;;;;;3.43;2.03;;;;;;;;;;5072530;28;20258;-82
2022/08/03 00:46:25;;;;;;;1.97;1.87;;;;;;;;;;5071373;28;20204;-82
2022/08/03 00:48:52;;;;;;;2.00;1.90;;;;;;;;;;5072360;28;20232;-82
2022/08/03 00:51:20;;;;;;;2.03;1.93;;;;;;;;;;5072996;28;20189;-81
2022/08/03 00:53:47;;;;;;;2.30;2.20;;;;;;;;;;5072817;28;20201;-81
2022/08/03 00:56:14;;;;;;;2.10;1.90;;;;;;;;;;5073521;28;20546;-82
2022/08/03 00:58:41;;;;;;;3.33;1.83;;;;;;;;;;5072394;28;20232;-82
2022/08/03 01:01:11;;;;;;;2.07;1.97;;;;;;;;;;5072661;28;20208;-82
2022/08/03 01:03:37;;;;;;;2.00;1.90;;;;;;;;;;5072459;28;20208;-82
2022/08/03 01:06:08;;;;;;;2.33;2.13;;;;;;;;;;5072311;28;20587;-82
2022/08/03 01:08:41;;;;;;;1.90;1.80;;;;;;;;;;5071954;28;20725;-82
2022/08/03 01:11:14;;;;;;;1.90;1.80;;;;;;;;;;5072614;28;20205;-82
2022/08/03 01:13:45;;;;;;;1.80;1.70;;;;;;;;;;5072041;28;20201;-82
2022/08/03 01:16:18;;;;;;;6.77;1.90;;;;;;;;;;5072130;28;20232;-82
2022/08/03 01:18:48;;;;;;;2.23;1.97;;;;;;;;;;5072145;28;20208;-82
2022/08/03 01:21:21;;;;;;;2.20;2.10;;;;;;;;;;5072433;28;20571;-82
2022/08/03 01:23:55;;;;;;;3.70;2.50;;;;;;;;;;5072045;28;20235;-82
2022/08/03 01:26:42;;;;;;;2.57;2.37;;;;;;;;;;5071657;28;20226;-82
2022/08/03 01:29:34;;;;;;;4.47;1.63;;;;;;;;;;5072728;28;20213;-82
2022/08/03 01:32:06;;;;;;;1.80;1.70;;;;;;;;;;5072239;28;20260;-82
2022/08/03 01:34:36;;;;;;;2.03;1.93;;;;;;;;;;5072485;28;20201;-82
2022/08/03 01:37:06;;;;;;;2.93;2.10;;;;;;;;;;5072272;28;20197;-82
2022/08/03 01:39:33;;;;;;;1.93;1.83;;;;;;;;;;5071555;28;20201;-82
2022/08/03 01:42:04;;;;;;;2.23;2.07;;;;;;;;;;5072480;28;20576;-82
2022/08/03 01:44:34;;;;;;;2.00;1.90;;;;;;;;;;5071782;28;20207;-82
2022/08/03 01:47:03;;;;;;;2.43;2.23;;;;;;;;;;5071713;28;20201;-82
2022/08/03 01:49:32;;;;;;;2.43;2.23;;;;;;;;;;5070816;28;20224;-82
2022/08/03 01:51:59;;;;;;;2.80;2.30;;;;;;;;;;5071626;28;20197;-82
2022/08/03 01:54:26;;;;;;;9.00;2.70;;;;;;;;;;5072069;28;20222;-81
2022/08/03 01:56:54;;;;;;;2.57;2.37;;;;;;;;;;5071608;28;20643;-82
2022/08/03 01:59:22;;;;;;;2.93;2.63;;;;;;;;;;5072111;28;20193;-82
2022/08/03 02:01:49;;;;;;;4.50;2.23;;;;;;;;;;5072368;28;20555;-82
2022/08/03 02:04:18;;;;;;;2.43;2.23;;;;;;;;;;5071921;28;20582;-82
2022/08/03 02:06:46;;;;;;;2.17;1.93;;;;;;;;;;5069975;28;20737;-82
2022/08/03 02:09:14;;;;;;;2.50;2.30;;;;;;;;;;5071262;28;20228;-82
2022/08/03 02:11:42;;;;;;;2.47;2.30;;;;;;;;;;5071618;28;20196;-81
2022/08/03 02:14:09;;;;;;;2.50;2.20;;;;;;;;;;5075951;28;20192;-82
2022/08/03 02:16:36;;;;;;;2.70;2.50;;;;;;;;;;5075513;28;20205;-82
2022/08/03 02:19:05;;;;;;;3.80;3.00;;;;;;;;;;5075663;28;20567;-82
2022/08/03 02:21:36;;;;;;;2.17;2.00;;;;;;;;;;5075769;28;20220;-82
2022/08/03 02:24:04;;;;;;;2.17;2.07;;;;;;;;;;5075723;28;20193;-82
2022/08/03 02:26:31;;;;;;;2.17;2.07;;;;;;;;;;5075612;28;20418;-82
2022/08/03 02:29:06;;;;;;;4.50;2.63;;;;;;;;;;5075498;28;20227;-82
2022/08/03 02:31:34;;;;;;;1.90;1.80;;;;;;;;;;5075782;28;20204;-82
2022/08/03 02:34:04;;;;;;;2.77;2.33;;;;;;;;;;5074042;28;20197;-82
2022/08/03 02:36:37;;;;;;;2.50;2.30;;;;;;;;;;5075262;28;20302;-82
2022/08/03 02:39:04;;;;;;;2.67;2.47;;;;;;;;;;5075516;28;20227;-82
2022/08/03 02:41:35;;;;;;;2.67;2.47;;;;;;;;;;5074982;28;20227;-82
2022/08/03 02:44:05;;;;;;;2.93;2.63;;;;;;;;;;5075791;28;20208;-83
2022/08/03 02:46:37;;;;;;;2.50;2.20;;;;;;;;;;5075290;28;20266;-82
2022/08/03 02:49:05;;;;;;;3.83;2.20;;;;;;;;;;5074670;28;20282;-82
2022/08/03 02:51:34;;;;;;;2.60;2.40;;;;;;;;;;5075205;28;20204;-82
2022/08/03 02:54:03;;;;;;;2.63;2.43;;;;;;;;;;5074623;28;20205;-82
2022/08/03 02:56:30;;;;;;;2.80;2.60;;;;;;;;;;5073991;28;20197;-82
2022/08/03 02:58:58;;;;;;;4.20;2.30;;;;;;;;;;5074674;28;20258;-82
2022/08/03 03:01:27;;;;;;;4.30;2.20;;;;;;;;;;5083411;28;20720;-81
2022/08/03 03:03:55;;;;;;;3.10;2.30;;;;;;;;;;5079572;28;20204;-83
2022/08/03 03:06:22;;;;;;;2.07;1.93;;;;;;;;;;5090997;28;20249;-83
2022/08/03 03:08:50;;;;;;;2.23;2.13;;;;;;;;;;5074943;28;20213;-83
2022/08/03 03:11:21;;;;;;;2.30;2.10;;;;;;;;;;5073405;28;20582;-82
2022/08/03 03:13:49;;;;;;;2.13;2.03;;;;;;;;;;5074301;28;20201;-83
2022/08/03 03:16:16;;;;;;;5.90;2.77;;;;;;;;;;5074991;28;20213;-83
2022/08/03 03:18:44;;;;;;;2.73;2.07;;;;;;;;;;5072766;28;20671;-83
2022/08/03 03:21:12;;;;;;;2.73;2.00;;;;;;;;;;5074100;28;20200;-82
2022/08/03 03:23:39;;;;;;;3.17;2.30;;;;;;;;;;5073287;28;20197;-82
2022/08/03 03:26:06;;;;;;;2.43;2.00;;;;;;;;;;5073019;28;20225;-82
2022/08/03 03:28:36;;;;;;;5.63;2.57;;;;;;;;;;5094227;28;20272;-83
2022/08/03 03:31:05;;;;;;;2.30;2.20;;;;;;;;;;5094983;28;20265;-82
2022/08/03 03:33:33;;;;;;;2.87;2.67;;;;;;;;;;5090743;28;20232;-83
2022/08/03 03:36:00;;;;;;;5.67;2.20;;;;;;;;;;5074114;28;20192;-82
2022/08/03 03:38:27;;;;;;;2.70;2.23;;;;;;;;;;5073867;28;20197;-81
2022/08/03 03:40:55;;;;;;;3.00;2.80;;;;;;;;;;5073963;28;20254;-81
2022/08/03 03:43:23;;;;;;;5.33;3.17;;;;;;;;;;5073749;28;20212;-81
2022/08/03 03:45:54;;;;;;;2.93;2.73;;;;;;;;;;5073988;28;20197;-81
2022/08/03 03:48:21;;;;;;;3.40;3.10;;;;;;;;;;5074309;28;20220;-82
2022/08/03 03:50:49;;;;;;;2.60;2.40;;;;;;;;;;5074167;28;20200;-82
2022/08/03 03:53:16;;;;;;;2.60;2.40;;;;;;;;;;5074152;28;20655;-84
2022/08/03 03:55:43;;;;;;;14.40;4.40;;;;;;;;;;5074373;28;20204;-82
2022/08/03 03:58:10;;;;;;;5.43;2.53;;;;;;;;;;5073867;28;20197;-82
2022/08/03 04:00:38;;;;;;;6.00;2.63;;;;;;;;;;5089745;28;20257;-78
2022/08/03 04:03:06;;;;;;;2.57;2.37;;;;;;;;;;5095361;28;20264;-81
2022/08/03 04:11:09;;;;;;;4.17;2.50;;;;;;;;;;5083004;28;20249;-82
2022/08/03 04:13:38;;;;;;;2.30;2.10;;;;;;;;;;5093411;28;20200;-81
2022/08/03 04:16:06;;;;;;;5.90;3.00;;;;;;;;;;5078106;28;20193;-81
2022/08/03 04:18:35;;;;;;;4.90;3.10;;;;;;;;;;5073377;28;20209;-78
2022/08/03 04:21:04;;;;;;;4.37;2.60;;;;;;;;;;5072791;28;20227;-79
2022/08/03 04:23:34;;;;;;;3.80;2.60;;;;;;;;;;5072456;28;20200;-79
2022/08/03 04:26:02;;;;;;;3.87;2.50;;;;;;;;;;5071875;28;20193;-78
2022/08/03 04:28:30;;;;;;;7.83;4.20;;;;;;;;;;5075053;28;20208;-79
2022/08/03 04:30:58;;;;;;;8.70;4.13;;;;;;;;;;5072204;28;20204;-79
2022/08/03 04:33:27;;;;;;;10.87;3.47;;;;;;;;;;5090984;28;20196;-78
2022/08/03 04:35:57;;;;;;;4.87;2.67;;;;;;;;;;5072741;28;20197;-82
2022/08/03 04:38:25;;;;;;;5.73;3.03;;;;;;;;;;5071716;28;20674;-81
2022/08/03 04:40:52;;;;;;;3.37;2.47;;;;;;;;;;5071748;28;20208;-81
2022/08/03 04:43:21;;;;;;;4.00;3.13;;;;;;;;;;5073048;28;20205;-81
2022/08/03 04:45:48;;;;;;;4.93;2.77;;;;;;;;;;5072489;28;20246;-81
2022/08/03 04:48:18;;;;;;;3.57;3.07;;;;;;;;;;5071689;28;20231;-81
2022/08/03 04:50:46;;;;;;;5.00;3.33;;;;;;;;;;5071200;28;20216;-81
2022/08/03 04:53:17;;;;;;;4.17;3.20;;;;;;;;;;5071669;28;20265;-81
2022/08/03 04:55:44;;;;;;;3.27;2.97;;;;;;;;;;5074426;28;20200;-81
2022/08/03 04:58:11;;;;;;;3.83;3.53;;;;;;;;;;5082845;28;20197;-81
2022/08/03 05:00:38;;;;;;;3.20;3.00;;;;;;;;;;5071296;28;20193;-81
2022/08/03 05:03:05;;;;;;;5.37;2.83;;;;;;;;;;5071253;28;20193;-80
2022/08/03 05:05:32;;;;;;;6.93;3.13;;;;;;;;;;5070987;28;20208;-81
2022/08/03 05:07:58;;;;;;;2.80;2.60;;;;;;;;;;5077537;28;20216;-81
2022/08/03 05:10:27;;;;;;;7.30;2.73;;;;;;;;;;5080397;28;20290;-81
2022/08/03 05:12:54;;;;;;;2.80;2.60;;;;;;;;;;5070854;28;20208;-81
2022/08/03 05:15:20;;;;;;;2.87;2.67;;;;;;;;;;5081577;28;20757;-81
2022/08/03 05:17:47;;;;;;;2.60;2.40;;;;;;;;;;5076836;28;20205;-80
2022/08/03 05:20:14;;;;;;;4.57;3.33;;;;;;;;;;5070828;28;20681;-80
2022/08/03 05:22:41;;;;;;;2.43;2.33;;;;;;;;;;5070704;28;20197;-80
2022/08/03 05:25:08;;;;;;;2.70;2.50;;;;;;;;;;5078401;28;20572;-80
2022/08/03 05:27:36;;;;;;;3.20;2.87;;;;;;;;;;5078294;28;20638;-80
2022/08/03 05:30:05;;;;;;;2.73;2.47;;;;;;;;;;5071208;28;20224;-80
2022/08/03 05:32:32;;;;;;;2.87;2.67;;;;;;;;;;5070345;28;20196;-80
2022/08/03 05:34:58;;;;;;;3.17;2.97;;;;;;;;;;5074759;28;20200;-80
2022/08/03 05:37:25;;;;;;;4.80;2.80;;;;;;;;;;5080644;28;20224;-80
2022/08/03 05:39:52;;;;;;;4.77;3.20;;;;;;;;;;5085714;28;20203;-80
2022/08/03 05:42:19;;;;;;;2.73;2.53;;;;;;;;;;5071203;28;20207;-80
2022/08/03 05:44:47;;;;;;;3.07;2.80;;;;;;;;;;5070635;28;20193;-81
2022/08/03 05:47:13;;;;;;;2.97;2.77;;;;;;;;;;5070081;28;20193;-80
2022/08/03 05:49:40;;;;;;;2.87;2.67;;;;;;;;;;5070824;28;20286;-80
2022/08/03 05:52:07;;;;;;;10.30;3.23;;;;;;;;;;5070348;28;20560;-80
2022/08/03 05:54:34;;;;;;;2.83;2.63;;;;;;;;;;5070874;28;20201;-80
2022/08/03 05:57:01;;;;;;;2.90;2.53;;;;;;;;;;5084268;28;20196;-81
2022/08/03 05:59:27;;;;;;;2.60;2.50;;;;;;;;;;5070945;28;20262;-80
2022/08/03 06:01:55;;;;;;;3.27;2.90;;;;;;;;;;5070393;28;20189;-80
2022/08/03 06:04:22;;;;;;;6.77;2.63;;;;;;;;;;5070801;28;20197;-80
2022/08/03 06:06:49;;;;;;;3.27;2.87;;;;;;;;;;5071388;28;20283;-80
2022/08/03 06:09:16;;;;;;;2.90;2.70;;;;;;;;;;5070371;28;20270;-81
2022/08/03 06:11:43;;;;;;;3.93;2.80;;;;;;;;;;5070862;28;20215;-80
2022/08/03 06:14:10;;;;;;;3.77;2.83;;;;;;;;;;5071139;28;20197;-81
2022/08/03 06:16:37;;;;;;;2.70;2.50;;;;;;;;;;5086881;28;20193;-81
2022/08/03 06:19:05;;;;;;;3.10;2.90;;;;;;;;;;5071503;28;20201;-81
2022/08/03 06:21:31;;;;;;;3.37;3.03;;;;;;;;;;5070190;28;20204;-81
2022/08/03 06:23:58;;;;;;;3.90;2.73;;;;;;;;;;5070987;28;20262;-80
2022/08/03 06:26:27;;;;;;;3.77;2.50;;;;;;;;;;5071925;28;20225;-80
2022/08/03 06:28:54;;;;;;;4.07;2.77;;;;;;;;;;5069638;28;20197;-81
2022/08/03 06:31:22;;;;;;;8.80;3.53;;;;;;;;;;5087313;28;20230;-79
2022/08/03 06:33:50;;;;;;;2.70;2.50;;;;;;;;;;5071287;28;20250;-80
2022/08/03 06:36:19;;;;;;;3.30;2.83;;;;;;;;;;5070739;28;20197;-80
2022/08/03 06:38:46;;;;;;;3.70;2.70;;;;;;;;;;5070176;28;20273;-81
2022/08/03 06:41:12;;;;;;;6.00;2.97;;;;;;;;;;5070233;28;20262;-81
2022/08/03 06:43:39;;;;;;;3.70;3.30;;;;;;;;;;5085528;28;20208;-81
2022/08/03 06:46:06;;;;;;;3.67;2.90;;;;;;;;;;5070696;28;20193;-81
2022/08/03 06:48:33;;;;;;;3.43;3.10;;;;;;;;;;5084499;28;20206;-81
2022/08/03 06:50:59;;;;;;;9.87;2.93;;;;;;;;;;5077603;28;20224;-80
2022/08/03 06:53:28;;;;;;;13.40;3.40;;;;;;;;;;5073622;28;20197;-80
2022/08/03 06:55:54;;;;;;;2.90;2.70;;;;;;;;;;5072789;28;20205;-80
2022/08/03 06:58:21;;;;;;;3.67;3.03;;;;;;;;;;5080557;28;20199;-79
2022/08/03 07:00:48;;;;;;;3.83;2.57;;;;;;;;;;5073747;28;20254;-80
2022/08/03 07:03:15;;;;;;;4.10;3.03;;;;;;;;;;5093517;28;20192;-80
2022/08/03 07:05:42;;;;;;;3.40;3.10;;;;;;;;;;5082763;28;20267;-80
2022/08/03 07:08:09;;;;;;;4.17;2.77;;;;;;;;;;5084939;28;20652;-81
2022/08/03 07:10:46;;;;;;;5.37;3.73;;;;;;;;;;5073247;28;20220;-81
2022/08/03 07:13:13;;;;;;;4.33;3.43;;;;;;;;;;5085618;28;20208;-80
2022/08/03 07:15:40;;;;;;;3.00;2.80;;;;;;;;;;5073275;28;20223;-80
2022/08/03 07:18:07;;;;;;;2.80;2.60;;;;;;;;;;5073641;28;20197;-80
2022/08/03 07:20:34;;;;;;;3.13;2.90;;;;;;;;;;5073297;28;20193;-80
2022/08/03 07:23:01;;;;;;;5.03;3.30;;;;;;;;;;5088003;28;20208;-80
2022/08/03 07:25:28;;;;;;;2.70;2.50;;;;;;;;;;5073082;28;20200;-80
2022/08/03 07:27:56;;;;;;;3.30;2.40;;;;;;;;;;5073524;28;20236;-80
2022/08/03 07:30:22;;;;;;;3.60;3.30;;;;;;;;;;5081362;28;20697;-80
2022/08/03 07:32:51;;;;;;;3.03;2.83;;;;;;;;;;5078627;28;20202;-80
2022/08/03 07:35:17;;;;;;;4.07;2.87;;;;;;;;;;5072662;28;20293;-83
2022/08/03 07:37:44;;;;;;;2.93;2.63;;;;;;;;;;5073904;28;20193;-81
2022/08/03 07:40:11;;;;;;;3.53;2.83;;;;;;;;;;5087685;28;20224;-80
2022/08/03 07:42:38;;;;;;;3.77;2.53;;;;;;;;;;5084304;28;20208;-82
2022/08/03 07:45:08;;;;;;;2.77;2.57;;;;;;;;;;5080420;28;20201;-79
2022/08/03 07:47:35;;;;;;;2.87;2.67;;;;;;;;;;5080725;28;20224;-80
2022/08/03 07:50:01;;;;;;;3.00;2.60;;;;;;;;;;5077592;28;20221;-80
2022/08/03 07:55:14;;;;;;;2.90;2.70;;;;;;;;;;5082090;28;20204;-79
2022/08/03 07:57:41;;;;;;;5.20;2.53;;;;;;;;;;5086819;28;20201;-79
2022/08/03 08:00:18;;;;;;;5.63;3.27;;;;;;;;;;5072569;28;20205;-80
2022/08/03 08:02:45;;;;;;;3.80;2.90;;;;;;;;;;5072584;28;20198;-78
2022/08/03 08:05:12;;;;;;;2.72;2.53;;;;;;;;;;5072782;28;20200;-79
2022/08/03 08:07:39;;;;;;;3.85;2.42;;;;;;;;;;5083457;28;20671;-80
2022/08/03 08:10:08;;;;;;;3.03;2.40;;;;;;;;;;5071766;28;20217;-79
2022/08/03 08:12:35;;;;;;;2.92;2.72;;;;;;;;;;5072416;28;20205;-78
2022/08/03 08:15:02;;;;;;;3.00;2.80;;;;;;;;;;5072382;28;20193;-79
2022/08/03 08:17:30;;;;;;;2.60;2.40;;;;;;;;;;5072090;28;20617;-79
2022/08/03 08:19:57;;;;;;;3.40;2.53;;;;;;;;;;5072509;28;20212;-79
2022/08/03 08:22:24;;;;;;;3.67;3.30;;;;;;;;;;5082554;28;20201;-79
2022/08/03 08:24:51;;;;;;;2.50;2.30;;;;;;;;;;5092751;28;20200;-79
2022/08/03 08:27:17;;;;;;;4.07;2.90;;;;;;;;;;5072404;28;20228;-79
2022/08/03 08:29:44;;;;;;;2.95;2.75;;;;;;;;;;5072014;28;20224;-79
2022/08/03 08:32:13;;;;;;;5.72;2.90;;;;;;;;;;5071571;28;20203;-79
2022/08/03 08:34:41;;;;;;;2.75;2.55;;;;;;;;;;5085849;28;20265;-79
2022/08/03 08:37:08;;;;;;;2.60;2.40;;;;;;;;;;5072582;28;20197;-80
2022/08/03 08:39:35;;;;;;;2.83;2.63;;;;;;;;;;5071909;28;20205;-79
2022/08/03 08:42:02;;;;;;;2.75;2.40;;;;;;;;;;5071430;28;20189;-80
2022/08/03 08:44:30;;;;;;;2.50;2.40;;;;;;;;;;5072314;28;20571;-79
2022/08/03 08:46:57;;;;;;;2.45;2.33;;;;;;;;;;5088146;28;20192;-78
2022/08/03 08:49:27;;;;;;;3.53;3.25;;;;;;;;;;5071827;28;20208;-79
2022/08/03 08:51:57;;;;;;;2.63;2.53;;;;;;;;;;5071967;28;20248;-79
2022/08/03 08:54:23;;;;;;;6.13;2.95;;;;;;;;;;5081905;28;20196;-78
2022/08/03 08:56:51;;;;;;;3.00;2.40;;;;;;;;;;5088374;28;20200;-79
2022/08/03 08:59:19;;;;;;;4.75;2.90;;;;;;;;;;5077901;28;20254;-79
2022/08/03 09:01:46;;;;;;;3.00;2.80;;;;;;;;;;5071807;28;20207;-79
2022/08/03 09:04:13;;;;;;;2.60;2.40;;;;;;;;;;5071174;28;20627;-79
2022/08/03 09:06:39;;;;;;;2.50;2.30;;;;;;;;;;5071669;28;20197;-79
2022/08/03 09:09:08;;;;;;;2.55;2.35;;;;;;;;;;5083819;28;20203;-82
2022/08/03 09:11:34;;;;;;;2.72;2.53;;;;;;;;;;5070974;28;20266;-80
2022/08/03 09:14:01;;;;;;;2.53;2.33;;;;;;;;;;5070961;28;20278;-79
2022/08/03 09:16:28;;;;;;;2.80;2.60;;;;;;;;;;5071010;28;20259;-79
2022/08/03 09:18:55;;;;;;;4.78;2.72;;;;;;;;;;5071435;28;20212;-80
2022/08/03 09:21:24;;;;;;;2.85;2.58;;;;;;;;;;5070892;28;20201;-78
2022/08/03 09:23:52;;;;;;;3.30;3.00;;;;;;;;;;5070267;28;20637;-79
2022/08/03 09:26:25;;;;;;;3.58;2.97;;;;;;;;;;5071272;28;20232;-79
2022/08/03 09:28:56;;;;;;;4.03;2.50;;;;;;;;;;5070725;28;20205;-78
2022/08/03 09:31:33;;;;;;;4.93;2.67;;;;;;;;;;5073466;28;21081;-79
2022/08/03 09:34:04;;;;;;;2.58;2.42;;;;;;;;;;5081580;28;20627;-79
2022/08/03 09:36:38;;;;;;;2.45;2.25;;;;;;;;;;5070781;28;20201;-79
2022/08/03 09:39:07;;;;;;;2.67;2.47;;;;;;;;;;5071154;28;20276;-79
2022/08/03 09:41:38;;;;;;;2.67;2.47;;;;;;;;;;5070901;28;20205;-78
2022/08/03 09:44:05;;;;;;;2.20;2.10;;;;;;;;;;5079150;28;20188;-78
2022/08/03 09:46:35;;;;;;;2.42;2.22;;;;;;;;;;5078376;28;20607;-78
2022/08/03 09:49:11;;;;;;;3.35;2.75;;;;;;;;;;5071087;28;20266;-78
2022/08/03 09:51:38;;;;;;;2.80;2.60;;;;;;;;;;5069975;28;20224;-79
2022/08/03 09:54:06;;;;;;;2.80;2.60;;;;;;;;;;5078409;28;20667;-78
2022/08/03 09:56:45;;;;;;;2.78;2.50;;;;;;;;;;5087302;28;20583;-79
2022/08/03 09:59:13;;;;;;;2.35;2.22;;;;;;;;;;5072807;28;20211;-79
2022/08/03 10:01:43;;;;;;;4.43;2.25;;;;;;;;;;5070710;28;20334;-78
2022/08/03 10:04:15;;;;;;;2.60;2.40;;;;;;;;;;5070603;28;20197;-79
2022/08/03 10:06:44;;;;;;;3.28;2.40;;;;;;;;;;5070845;28;20197;-79
2022/08/03 10:09:12;;;;;;;2.25;2.15;;;;;;;;;;5081966;28;20208;-79
2022/08/03 10:11:40;;;;;;;3.17;2.08;;;;;;;;;;5070674;28;20256;-79
2022/08/03 10:14:17;;;;;;;2.80;2.60;;;;;;;;;;5070805;28;20208;-79
2022/08/03 10:16:44;;;;;;;3.63;3.20;;;;;;;;;;5070407;28;20200;-79
2022/08/03 10:19:13;;;;;;;2.42;2.22;;;;;;;;;;5070726;28;20204;-78
2022/08/03 10:21:46;;;;;;;2.70;2.50;;;;;;;;;;5070606;28;20185;-79
2022/08/03 10:24:15;;;;;;;2.95;2.58;;;;;;;;;;5083917;28;20735;-78
2022/08/03 10:26:44;;;;;;;2.47;2.38;;;;;;;;;;5078660;28;20224;-78
2022/08/03 10:29:18;;;;;;;2.55;2.45;;;;;;;;;;5081602;28;20189;-79
2022/08/03 10:31:45;;;;;;;2.45;2.20;;;;;;;;;;5070088;28;20569;-79
2022/08/03 10:34:17;;;;;;;2.38;2.28;;;;;;;;;;5072779;28;20208;-78
2022/08/03 10:36:45;;;;;;;2.58;2.38;;;;;;;;;;5079421;28;20188;-78
2022/08/03 10:39:13;;;;;;;2.55;2.35;;;;;;;;;;5082946;28;20201;-78
2022/08/03 10:41:43;;;;;;;2.90;2.70;;;;;;;;;;5074079;28;20667;-79
2022/08/03 10:44:12;;;;;;;7.15;2.78;;;;;;;;;;5073747;28;20202;-78
2022/08/03 10:46:41;;;;;;;2.40;2.20;;;;;;;;;;5074410;28;20301;-78
2022/08/03 10:49:08;;;;;;;2.67;2.47;;;;;;;;;;5074063;28;20565;-79
2022/08/03 10:51:35;;;;;;;2.45;2.35;;;;;;;;;;5074317;28;20223;-78
2022/08/03 10:54:02;;;;;;;2.80;2.60;;;;;;;;;;5074707;28;20605;-78
2022/08/03 10:59:56;;;;;;;2.60;2.40;;;;;;;;;;5073766;28;20212;-79
2022/08/03 11:03:03;;;;;;;4.50;2.50;;;;;;;;;;5074136;28;20295;-79
2022/08/03 11:05:31;;;;;;;2.40;2.20;;;;;;;;;;5093417;28;20196;-79
2022/08/03 11:08:29;;;;;;;2.80;2.60;;;;;;;;;;5072529;28;20565;-78
2022/08/03 11:11:01;;;;;;;8.10;2.28;;;;;;;;;;5073260;28;20228;-80
2022/08/03 11:13:30;;;;;;;9.18;2.92;;;;;;;;;;5073810;28;20204;-80
2022/08/03 11:16:01;;;;;;;4.90;2.55;;;;;;;;;;5073456;28;20319;-78
2022/08/03 11:18:30;;;;;;;2.67;2.45;;;;;;;;;;5073937;28;20211;-78
2022/08/03 11:20:58;;;;;;;3.55;2.50;;;;;;;;;;5073424;28;20208;-79
2022/08/03 11:23:40;;;;;;;2.65;2.20;;;;;;;;;;5073349;28;20201;-79
2022/08/03 11:26:14;;;;;;;4.20;2.40;;;;;;;;;;5071655;28;20307;-79
2022/08/03 11:28:45;;;;;;;2.40;2.20;;;;;;;;;;5077486;28;20195;-79
2022/08/03 11:31:47;;;;;;;2.17;1.98;;;;;;;;;;5084970;28;20221;-79
2022/08/03 11:34:16;;;;;;;4.93;2.00;;;;;;;;;;5081432;28;20250;-78
2022/08/03 11:37:21;;;;;;;2.15;2.05;;;;;;;;;;5076882;28;20212;-79
2022/08/03 11:39:50;;;;;;;2.05;1.85;;;;;;;;;;5079318;28;20228;-79
2022/08/03 11:42:44;;;;;;;2.42;2.30;;;;;;;;;;5084914;28;20203;-78
2022/08/03 11:45:11;;;;;;;2.13;2.03;;;;;;;;;;5076008;28;20196;-78
2022/08/03 11:47:39;;;;;;;2.22;2.03;;;;;;;;;;5086177;28;20567;-80
2022/08/03 11:50:10;;;;;;;4.03;2.20;;;;;;;;;;5075040;28;20659;-78
2022/08/03 11:52:39;;;;;;;2.03;1.92;;;;;;;;;;5084053;28;20228;-79
2022/08/03 11:55:14;;;;;;;2.53;2.33;;;;;;;;;;5073704;28;20258;-80
2022/08/03 11:57:41;;;;;;;2.80;2.22;;;;;;;;;;5074129;28;20204;-80
2022/08/03 12:00:20;;;;;;;2.38;2.15;;;;;;;;;;5072631;28;20194;-82
2022/08/03 12:02:55;;;;;;;6.25;2.30;;;;;;;;;;5072723;28;20649;-79
2022/08/03 12:05:36;;;;;;;2.22;2.10;;;;;;;;;;5073059;28;20200;-78
2022/08/03 12:08:03;;;;;;;1.55;1.45;;;;;;;;;;5078006;28;20188;-78
2022/08/03 12:10:30;;;;;;;2.03;1.88;;;;;;;;;;5080079;28;20246;-79
2022/08/03 12:12:58;;;;;;;1.88;1.70;;;;;;;;;;5072234;28;20220;-79
2022/08/03 12:15:25;;;;;;;1.92;1.83;;;;;;;;;;5072337;28;20204;-79
2022/08/03 12:17:52;;;;;;;2.00;1.90;;;;;;;;;;5085941;28;20189;-78
2022/08/03 12:20:23;;;;;;;2.25;1.90;;;;;;;;;;5072200;28;20224;-78
2022/08/03 12:22:50;;;;;;;2.05;1.95;;;;;;;;;;5071918;28;20212;-79
2022/08/03 12:25:22;;;;;;;2.55;1.58;;;;;;;;;;5080747;28;20203;-79
2022/08/03 12:27:48;;;;;;;2.28;2.17;;;;;;;;;;5077994;28;20224;-79
2022/08/03 12:30:16;;;;;;;4.97;2.22;;;;;;;;;;5073168;28;20196;-79
2022/08/03 12:32:43;;;;;;;2.78;2.40;;;;;;;;;;5078584;28;20221;-79
2022/08/03 12:35:10;;;;;;;2.40;2.20;;;;;;;;;;5072179;28;20231;-79
2022/08/03 12:37:48;;;;;;;2.03;1.83;;;;;;;;;;5084349;28;20221;-79
2022/08/03 12:40:15;;;;;;;1.90;1.80;;;;;;;;;;5072188;28;20608;-78
2022/08/03 12:42:41;;;;;;;2.15;2.05;;;;;;;;;;5072055;28;20201;-78
2022/08/03 12:45:22;;;;;;;2.90;2.70;;;;;;;;;;5082357;28;20205;-79
2022/08/03 12:47:53;;;;;;;2.03;1.92;;;;;;;;;;5071764;28;20204;-79
2022/08/03 12:50:28;;;;;;;2.08;1.85;;;;;;;;;;5071477;28;20193;-78
2022/08/03 12:52:56;;;;;;;1.77;1.67;;;;;;;;;;5082254;28;20577;-78
2022/08/03 12:55:24;;;;;;;1.90;1.80;;;;;;;;;;5079419;28;20225;-79
2022/08/03 12:57:51;;;;;;;2.30;1.92;;;;;;;;;;5079533;28;20193;-78
2022/08/03 13:00:19;;;;;;;2.28;2.17;;;;;;;;;;5071798;28;20201;-79
2022/08/03 13:02:46;;;;;;;2.10;2.00;;;;;;;;;;5071176;28;20193;-79
2022/08/03 13:05:15;;;;;;;1.55;1.45;;;;;;;;;;5071449;28;20212;-79
2022/08/03 13:07:42;;;;;;;1.98;1.88;;;;;;;;;;5071498;28;20280;-78
2022/08/03 13:10:11;;;;;;;1.70;1.60;;;;;;;;;;5071321;28;20193;-79
2022/08/03 13:12:48;;;;;;;3.17;2.03;;;;;;;;;;5070905;28;20232;-78
2022/08/03 13:15:15;;;;;;;1.65;1.55;;;;;;;;;;5070845;28;20224;-79
2022/08/03 13:17:42;;;;;;;1.92;1.83;;;;;;;;;;5071257;28;20203;-78
2022/08/03 13:20:09;;;;;;;3.28;1.65;;;;;;;;;;5072253;28;20204;-79
2022/08/03 13:22:36;;;;;;;1.73;1.63;;;;;;;;;;5081267;28;20599;-79
2022/08/03 13:25:04;;;;;;;3.40;2.35;;;;;;;;;;5084670;28;20736;-77
2022/08/03 13:27:32;;;;;;;1.90;1.77;;;;;;;;;;5083651;28;20220;-78
2022/08/03 13:29:59;;;;;;;1.75;1.65;;;;;;;;;;5074392;28;20196;-78
2022/08/03 13:32:26;;;;;;;2.95;2.05;;;;;;;;;;5070999;28;20259;-78
2022/08/03 13:34:53;;;;;;;2.92;1.60;;;;;;;;;;5070960;28;20203;-78
2022/08/03 13:37:20;;;;;;;1.52;1.42;;;;;;;;;;5070736;28;20193;-79
2022/08/03 13:39:46;;;;;;;4.00;1.42;;;;;;;;;;5070447;28;20193;-78
2022/08/03 13:42:13;;;;;;;3.15;1.90;;;;;;;;;;5070566;28;20204;-78
2022/08/03 13:44:41;;;;;;;2.03;1.83;;;;;;;;;;5071010;28;20204;-80
2022/08/03 13:47:08;;;;;;;2.10;2.00;;;;;;;;;;5070874;28;20305;-79
2022/08/03 13:49:35;;;;;;;2.40;2.30;;;;;;;;;;5070537;28;20204;-79
2022/08/03 13:52:04;;;;;;;2.33;2.22;;;;;;;;;;5085389;28;20209;-79
2022/08/03 13:54:32;;;;;;;2.33;2.13;;;;;;;;;;5070644;28;20609;-79
2022/08/03 13:56:59;;;;;;;1.75;1.65;;;;;;;;;;5084507;28;20283;-79
2022/08/03 13:59:26;;;;;;;1.95;1.85;;;;;;;;;;5076526;28;20297;-80
2022/08/03 14:01:54;;;;;;;1.83;1.73;;;;;;;;;;5084546;28;20205;-80
2022/08/03 14:04:22;;;;;;;1.83;1.73;;;;;;;;;;5070567;28;20205;-80
2022/08/03 14:06:48;;;;;;;2.00;1.90;;;;;;;;;;5070371;28;20229;-80
2022/08/03 14:09:16;;;;;;;2.10;2.00;;;;;;;;;;5072922;28;20693;-80
2022/08/03 14:11:43;;;;;;;5.22;1.90;;;;;;;;;;5092251;28;20262;-79
2022/08/03 14:14:10;;;;;;;2.15;1.95;;;;;;;;;;5074430;28;20617;-79
2022/08/03 14:16:37;;;;;;;1.85;1.75;;;;;;;;;;5074496;28;20193;-80
2022/08/03 14:19:05;;;;;;;1.90;1.80;;;;;;;;;;5074407;28;20613;-79
2022/08/03 14:21:33;;;;;;;1.67;1.58;;;;;;;;;;5074697;28;20205;-79
2022/08/03 14:24:00;;;;;;;1.77;1.67;;;;;;;;;;5074848;28;20204;-78
2022/08/03 14:26:27;;;;;;;3.90;2.25;;;;;;;;;;5074297;28;20220;-79
2022/08/03 14:28:54;;;;;;;3.25;1.83;;;;;;;;;;5073852;28;20193;-80
2022/08/03 14:31:22;;;;;;;10.05;1.90;;;;;;;;;;5074632;28;20205;-80
2022/08/03 14:33:49;;;;;;;1.50;1.40;;;;;;;;;;5074578;28;20227;-79
2022/08/03 14:36:17;;;;;;;2.78;2.15;;;;;;;;;;5074374;28;20200;-80
2022/08/03 14:38:47;;;;;;;2.13;1.92;;;;;;;;;;5079452;28;20192;-79
2022/08/03 14:41:14;;;;;;;1.98;1.83;;;;;;;;;;5086205;28;20205;-79
2022/08/03 14:43:40;;;;;;;2.65;1.80;;;;;;;;;;5074535;28;20644;-79
2022/08/03 14:46:07;;;;;;;1.45;1.35;;;;;;;;;;5074299;28;20208;-79
2022/08/03 14:48:34;;;;;;;1.90;1.80;;;;;;;;;;5074594;28;20197;-79
2022/08/03 14:51:02;;;;;;;4.55;4.18;;;;;;;;;;5075055;28;20206;-79
2022/08/03 14:53:31;;;;;;;2.63;2.42;;;;;;;;;;5075081;28;20235;-79
2022/08/03 14:55:57;;;;;;;2.10;1.90;;;;;;;;;;5075449;28;20262;-79
2022/08/03 14:58:26;;;;;;;3.03;2.83;;;;;;;;;;5083219;28;20205;-80
2022/08/03 15:00:54;;;;;;;2.47;2.28;;;;;;;;;;5077231;28;20192;-80
2022/08/03 15:03:23;;;;;;;3.83;2.25;;;;;;;;;;5083782;28;20254;-79
2022/08/03 15:05:50;;;;;;;2.47;2.33;;;;;;;;;;5074983;28;20197;-79